Weather at Gvulot Airstrip

Public forecast

Using degrees Celsius for public forecast. Weather courtesy of forecast.io.

Closest aviation weather report (METAR) to Gvulot Airstrip

Closest report is Ben Gurion International Airport, 51.9 nm (96.0 km) NNE.

2022/12/01 23:20 (retrieved 13 minutes ago)

LLBG 012320Z VRB02KT CAVOK 13/10 Q1018 NOSIG

Closest aviation forecast (TAF) to Gvulot Airstrip

Forecast is more than 12 hours old.

Closest forecast is El Jora Airport, 18.2 nm (33.6 km) WSW.

2022/11/29 12:00 (retrieved 2 days ago)

TAF HEGR 291100Z 2912/3018 33008KT 9999 SCT025 BECMG 2918/2920 VRB03KT BECMG 3015/3017 02008KT